sensor_id;sensor_type;location;lat;lon;timestamp;P1;durP1;ratioP1;P2;durP2;ratioP2
44774;SDS011;31340;51.402;0.016;2024-03-02T00:00:58;12.95;;;2.15;;
44774;SDS011;31340;51.402;0.016;2024-03-02T00:03:26;8.15;;;2.00;;
44774;SDS011;31340;51.402;0.016;2024-03-02T00:05:54;4.30;;;2.10;;
44774;SDS011;31340;51.402;0.016;2024-03-02T00:08:22;7.78;;;2.13;;
44774;SDS011;31340;51.402;0.016;2024-03-02T00:10:55;9.40;;;2.28;;
44774;SDS011;31340;51.402;0.016;2024-03-02T00:13:25;11.05;;;2.13;;
44774;SDS011;31340;51.402;0.016;2024-03-02T00:15:57;9.88;;;2.17;;
44774;SDS011;31340;51.402;0.016;2024-03-02T00:18:32;6.97;;;2.15;;
44774;SDS011;31340;51.402;0.016;2024-03-02T00:21:02;7.50;;;2.35;;
44774;SDS011;31340;51.402;0.016;2024-03-02T00:23:31;9.98;;;2.03;;
44774;SDS011;31340;51.402;0.016;2024-03-02T00:26:00;9.57;;;2.75;;
44774;SDS011;31340;51.402;0.016;2024-03-02T00:28:32;9.45;;;2.20;;
44774;SDS011;31340;51.402;0.016;2024-03-02T00:33:43;6.90;;;2.20;;
44774;SDS011;31340;51.402;0.016;2024-03-02T00:36:15;8.35;;;2.22;;
44774;SDS011;31340;51.402;0.016;2024-03-02T00:38:50;12.25;;;2.72;;
44774;SDS011;31340;51.402;0.016;2024-03-02T00:41:22;7.30;;;2.05;;
44774;SDS011;31340;51.402;0.016;2024-03-02T00:44:05;8.15;;;1.77;;
44774;SDS011;31340;51.402;0.016;2024-03-02T00:46:39;10.68;;;1.90;;
44774;SDS011;31340;51.402;0.016;2024-03-02T00:51:48;10.40;;;2.10;;
44774;SDS011;31340;51.402;0.016;2024-03-02T00:54:25;12.25;;;3.10;;
44774;SDS011;31340;51.402;0.016;2024-03-02T00:56:53;9.32;;;1.65;;
44774;SDS011;31340;51.402;0.016;2024-03-02T00:59:23;7.22;;;2.20;;
44774;SDS011;31340;51.402;0.016;2024-03-02T01:01:51;9.40;;;1.98;;
44774;SDS011;31340;51.402;0.016;2024-03-02T01:04:19;11.20;;;1.77;;
44774;SDS011;31340;51.402;0.016;2024-03-02T01:06:47;13.82;;;2.67;;
44774;SDS011;31340;51.402;0.016;2024-03-02T01:09:15;17.02;;;2.10;;
44774;SDS011;31340;51.402;0.016;2024-03-02T01:11:45;9.23;;;2.10;;
44774;SDS011;31340;51.402;0.016;2024-03-02T01:14:13;7.63;;;1.90;;
44774;SDS011;31340;51.402;0.016;2024-03-02T01:16:41;10.32;;;1.95;;
44774;SDS011;31340;51.402;0.016;2024-03-02T01:19:08;9.20;;;1.75;;
44774;SDS011;31340;51.402;0.016;2024-03-02T01:21:37;10.68;;;1.92;;
44774;SDS011;31340;51.402;0.016;2024-03-02T01:24:05;10.93;;;1.58;;
44774;SDS011;31340;51.402;0.016;2024-03-02T01:26:32;11.30;;;1.83;;
44774;SDS011;31340;51.402;0.016;2024-03-02T01:29:00;7.93;;;1.40;;
44774;SDS011;31340;51.402;0.016;2024-03-02T01:31:28;15.95;;;2.40;;
44774;SDS011;31340;51.402;0.016;2024-03-02T01:33:56;7.40;;;1.48;;
44774;SDS011;31340;51.402;0.016;2024-03-02T01:36:23;10.02;;;2.22;;
44774;SDS011;31340;51.402;0.016;2024-03-02T01:38:51;8.70;;;1.70;;
44774;SDS011;31340;51.402;0.016;2024-03-02T01:41:19;9.07;;;1.75;;
44774;SDS011;31340;51.402;0.016;2024-03-02T01:43:46;13.80;;;2.35;;
44774;SDS011;31340;51.402;0.016;2024-03-02T01:46:14;9.45;;;2.13;;
44774;SDS011;31340;51.402;0.016;2024-03-02T01:48:42;8.68;;;2.03;;
44774;SDS011;31340;51.402;0.016;2024-03-02T01:51:09;11.43;;;2.30;;
44774;SDS011;31340;51.402;0.016;2024-03-02T01:53:38;11.35;;;2.35;;
44774;SDS011;31340;51.402;0.016;2024-03-02T01:56:06;12.02;;;2.13;;
44774;SDS011;31340;51.402;0.016;2024-03-02T01:58:35;14.10;;;3.50;;
44774;SDS011;31340;51.402;0.016;2024-03-02T02:01:03;9.02;;;1.60;;
44774;SDS011;31340;51.402;0.016;2024-03-02T02:03:31;20.40;;;3.13;;
44774;SDS011;31340;51.402;0.016;2024-03-02T02:05:59;14.27;;;1.60;;
44774;SDS011;31340;51.402;0.016;2024-03-02T02:08:26;19.05;;;2.55;;
44774;SDS011;31340;51.402;0.016;2024-03-02T02:10:54;21.67;;;2.72;;
44774;SDS011;31340;51.402;0.016;2024-03-02T02:13:22;10.70;;;2.10;;
44774;SDS011;31340;51.402;0.016;2024-03-02T02:15:50;11.05;;;1.98;;
44774;SDS011;31340;51.402;0.016;2024-03-02T02:18:20;10.80;;;1.83;;
44774;SDS011;31340;51.402;0.016;2024-03-02T02:20:48;12.85;;;2.00;;
44774;SDS011;31340;51.402;0.016;2024-03-02T02:23:16;18.95;;;2.30;;
44774;SDS011;31340;51.402;0.016;2024-03-02T02:25:45;19.08;;;2.28;;
44774;SDS011;31340;51.402;0.016;2024-03-02T02:28:13;13.02;;;2.10;;
44774;SDS011;31340;51.402;0.016;2024-03-02T02:30:41;17.35;;;2.58;;
44774;SDS011;31340;51.402;0.016;2024-03-02T02:33:09;19.42;;;2.20;;
44774;SDS011;31340;51.402;0.016;2024-03-02T02:35:37;21.45;;;1.90;;
44774;SDS011;31340;51.402;0.016;2024-03-02T02:38:05;14.18;;;1.90;;
44774;SDS011;31340;51.402;0.016;2024-03-02T02:40:33;20.45;;;2.50;;
44774;SDS011;31340;51.402;0.016;2024-03-02T02:43:01;11.55;;;2.20;;
44774;SDS011;31340;51.402;0.016;2024-03-02T02:45:29;26.02;;;2.05;;
44774;SDS011;31340;51.402;0.016;2024-03-02T02:47:57;8.35;;;2.00;;
44774;SDS011;31340;51.402;0.016;2024-03-02T02:50:25;12.82;;;1.95;;
44774;SDS011;31340;51.402;0.016;2024-03-02T02:52:52;18.20;;;3.20;;
44774;SDS011;31340;51.402;0.016;2024-03-02T02:55:20;10.10;;;2.70;;
44774;SDS011;31340;51.402;0.016;2024-03-02T02:57:48;19.75;;;3.67;;
44774;SDS011;31340;51.402;0.016;2024-03-02T03:00:16;16.45;;;2.22;;
44774;SDS011;31340;51.402;0.016;2024-03-02T03:02:46;13.52;;;2.53;;
44774;SDS011;31340;51.402;0.016;2024-03-02T03:05:17;12.48;;;2.58;;
44774;SDS011;31340;51.402;0.016;2024-03-02T03:07:45;13.20;;;2.40;;
44774;SDS011;31340;51.402;0.016;2024-03-02T03:10:16;13.52;;;2.38;;
44774;SDS011;31340;51.402;0.016;2024-03-02T03:12:44;14.20;;;3.38;;
44774;SDS011;31340;51.402;0.016;2024-03-02T03:15:13;14.15;;;1.90;;
44774;SDS011;31340;51.402;0.016;2024-03-02T03:17:41;11.48;;;2.20;;
44774;SDS011;31340;51.402;0.016;2024-03-02T03:20:10;18.20;;;2.47;;
44774;SDS011;31340;51.402;0.016;2024-03-02T03:22:38;16.88;;;2.53;;
44774;SDS011;31340;51.402;0.016;2024-03-02T03:25:07;14.70;;;2.42;;
44774;SDS011;31340;51.402;0.016;2024-03-02T03:27:37;11.43;;;1.83;;
44774;SDS011;31340;51.402;0.016;2024-03-02T03:30:05;12.43;;;2.47;;
44774;SDS011;31340;51.402;0.016;2024-03-02T03:32:34;12.45;;;2.58;;
44774;SDS011;31340;51.402;0.016;2024-03-02T03:35:02;15.23;;;2.30;;
44774;SDS011;31340;51.402;0.016;2024-03-02T03:37:32;18.10;;;2.35;;
44774;SDS011;31340;51.402;0.016;2024-03-02T03:40:04;16.02;;;2.50;;
44774;SDS011;31340;51.402;0.016;2024-03-02T03:42:38;15.73;;;2.30;;
44774;SDS011;31340;51.402;0.016;2024-03-02T03:45:07;20.13;;;3.28;;
44774;SDS011;31340;51.402;0.016;2024-03-02T03:47:35;18.00;;;3.00;;
44774;SDS011;31340;51.402;0.016;2024-03-02T03:50:03;18.00;;;2.85;;
44774;SDS011;31340;51.402;0.016;2024-03-02T03:52:35;21.90;;;2.72;;
44774;SDS011;31340;51.402;0.016;2024-03-02T03:55:03;19.90;;;2.47;;
44774;SDS011;31340;51.402;0.016;2024-03-02T03:57:32;16.60;;;2.30;;
44774;SDS011;31340;51.402;0.016;2024-03-02T04:00:00;18.50;;;2.47;;
44774;SDS011;31340;51.402;0.016;2024-03-02T04:02:38;19.38;;;3.08;;
44774;SDS011;31340;51.402;0.016;2024-03-02T04:05:06;15.82;;;2.55;;
44774;SDS011;31340;51.402;0.016;2024-03-02T04:07:38;14.73;;;2.30;;
44774;SDS011;31340;51.402;0.016;2024-03-02T04:10:10;19.90;;;2.78;;
44774;SDS011;31340;51.402;0.016;2024-03-02T04:12:39;17.48;;;2.65;;
44774;SDS011;31340;51.402;0.016;2024-03-02T04:15:06;17.15;;;2.85;;
44774;SDS011;31340;51.402;0.016;2024-03-02T04:17:34;19.38;;;3.42;;
44774;SDS011;31340;51.402;0.016;2024-03-02T04:20:03;23.95;;;3.08;;
44774;SDS011;31340;51.402;0.016;2024-03-02T04:22:35;18.85;;;3.13;;
44774;SDS011;31340;51.402;0.016;2024-03-02T04:25:03;17.92;;;2.83;;
44774;SDS011;31340;51.402;0.016;2024-03-02T04:27:34;17.75;;;2.55;;
44774;SDS011;31340;51.402;0.016;2024-03-02T04:30:03;21.23;;;3.40;;
44774;SDS011;31340;51.402;0.016;2024-03-02T04:32:32;16.23;;;2.70;;
44774;SDS011;31340;51.402;0.016;2024-03-02T04:35:00;28.55;;;2.95;;
44774;SDS011;31340;51.402;0.016;2024-03-02T04:37:28;18.60;;;2.80;;
44774;SDS011;31340;51.402;0.016;2024-03-02T04:39:55;18.83;;;2.35;;
44774;SDS011;31340;51.402;0.016;2024-03-02T04:42:23;22.85;;;3.08;;
44774;SDS011;31340;51.402;0.016;2024-03-02T04:44:51;22.42;;;2.97;;
44774;SDS011;31340;51.402;0.016;2024-03-02T04:47:19;18.10;;;3.03;;
44774;SDS011;31340;51.402;0.016;2024-03-02T04:49:46;23.92;;;3.13;;
44774;SDS011;31340;51.402;0.016;2024-03-02T04:52:14;20.48;;;3.20;;
44774;SDS011;31340;51.402;0.016;2024-03-02T04:54:43;20.67;;;2.17;;
44774;SDS011;31340;51.402;0.016;2024-03-02T04:57:44;23.60;;;3.58;;
44774;SDS011;31340;51.402;0.016;2024-03-02T05:00:13;17.47;;;2.30;;
44774;SDS011;31340;51.402;0.016;2024-03-02T05:02:41;18.85;;;3.08;;
44774;SDS011;31340;51.402;0.016;2024-03-02T05:05:09;15.15;;;2.72;;
44774;SDS011;31340;51.402;0.016;2024-03-02T05:07:37;20.77;;;3.08;;
44774;SDS011;31340;51.402;0.016;2024-03-02T05:10:05;22.85;;;2.75;;
44774;SDS011;31340;51.402;0.016;2024-03-02T05:12:32;20.05;;;4.18;;
44774;SDS011;31340;51.402;0.016;2024-03-02T05:15:03;18.30;;;2.42;;
44774;SDS011;31340;51.402;0.016;2024-03-02T05:17:31;17.75;;;2.90;;
44774;SDS011;31340;51.402;0.016;2024-03-02T05:19:58;18.77;;;3.33;;
44774;SDS011;31340;51.402;0.016;2024-03-02T05:22:26;15.68;;;2.72;;
44774;SDS011;31340;51.402;0.016;2024-03-02T05:24:54;15.20;;;2.45;;
44774;SDS011;31340;51.402;0.016;2024-03-02T05:27:21;12.27;;;2.85;;
44774;SDS011;31340;51.402;0.016;2024-03-02T05:29:49;21.48;;;2.88;;
44774;SDS011;31340;51.402;0.016;2024-03-02T05:32:17;23.60;;;3.15;;
44774;SDS011;31340;51.402;0.016;2024-03-02T05:34:45;19.50;;;3.05;;
44774;SDS011;31340;51.402;0.016;2024-03-02T05:37:12;19.83;;;3.15;;
44774;SDS011;31340;51.402;0.016;2024-03-02T05:39:40;23.10;;;3.00;;
44774;SDS011;31340;51.402;0.016;2024-03-02T05:42:07;26.30;;;2.88;;
44774;SDS011;31340;51.402;0.016;2024-03-02T05:44:36;20.27;;;2.75;;
44774;SDS011;31340;51.402;0.016;2024-03-02T05:47:04;26.52;;;3.70;;
44774;SDS011;31340;51.402;0.016;2024-03-02T05:49:36;23.55;;;2.72;;
44774;SDS011;31340;51.402;0.016;2024-03-02T05:52:04;14.18;;;2.78;;
44774;SDS011;31340;51.402;0.016;2024-03-02T05:54:31;18.75;;;3.28;;
44774;SDS011;31340;51.402;0.016;2024-03-02T05:56:59;20.20;;;2.70;;
44774;SDS011;31340;51.402;0.016;2024-03-02T05:59:44;22.20;;;3.10;;
44774;SDS011;31340;51.402;0.016;2024-03-02T06:02:11;18.80;;;2.60;;
44774;SDS011;31340;51.402;0.016;2024-03-02T06:04:39;19.08;;;3.28;;
44774;SDS011;31340;51.402;0.016;2024-03-02T06:07:07;27.50;;;3.63;;
44774;SDS011;31340;51.402;0.016;2024-03-02T06:09:34;23.15;;;3.47;;
44774;SDS011;31340;51.402;0.016;2024-03-02T06:12:02;20.98;;;3.40;;
44774;SDS011;31340;51.402;0.016;2024-03-02T06:14:31;22.00;;;3.20;;
44774;SDS011;31340;51.402;0.016;2024-03-02T06:16:58;15.75;;;2.53;;
44774;SDS011;31340;51.402;0.016;2024-03-02T06:19:26;20.58;;;3.25;;
44774;SDS011;31340;51.402;0.016;2024-03-02T06:21:55;22.50;;;3.10;;
44774;SDS011;31340;51.402;0.016;2024-03-02T06:24:23;19.40;;;2.60;;
44774;SDS011;31340;51.402;0.016;2024-03-02T06:26:51;20.17;;;2.92;;
44774;SDS011;31340;51.402;0.016;2024-03-02T06:29:19;24.67;;;3.30;;
44774;SDS011;31340;51.402;0.016;2024-03-02T06:31:46;28.20;;;3.67;;
44774;SDS011;31340;51.402;0.016;2024-03-02T06:34:16;20.10;;;3.03;;
44774;SDS011;31340;51.402;0.016;2024-03-02T06:36:44;19.65;;;3.17;;
44774;SDS011;31340;51.402;0.016;2024-03-02T06:39:12;21.17;;;3.22;;
44774;SDS011;31340;51.402;0.016;2024-03-02T06:41:39;19.60;;;2.80;;
44774;SDS011;31340;51.402;0.016;2024-03-02T06:44:07;24.27;;;3.03;;
44774;SDS011;31340;51.402;0.016;2024-03-02T06:46:34;12.65;;;2.40;;
44774;SDS011;31340;51.402;0.016;2024-03-02T06:49:02;16.20;;;2.72;;
44774;SDS011;31340;51.402;0.016;2024-03-02T06:51:31;17.15;;;2.70;;
44774;SDS011;31340;51.402;0.016;2024-03-02T06:54:00;13.88;;;2.38;;
44774;SDS011;31340;51.402;0.016;2024-03-02T06:56:28;14.30;;;2.30;;
44774;SDS011;31340;51.402;0.016;2024-03-02T06:58:56;13.80;;;1.80;;
44774;SDS011;31340;51.402;0.016;2024-03-02T07:01:23;8.93;;;1.60;;
44774;SDS011;31340;51.402;0.016;2024-03-02T07:03:53;9.90;;;1.58;;
44774;SDS011;31340;51.402;0.016;2024-03-02T07:06:22;11.80;;;2.00;;
44774;SDS011;31340;51.402;0.016;2024-03-02T07:08:50;8.57;;;1.65;;
44774;SDS011;31340;51.402;0.016;2024-03-02T07:11:17;6.53;;;1.75;;
44774;SDS011;31340;51.402;0.016;2024-03-02T07:13:45;20.40;;;2.10;;
44774;SDS011;31340;51.402;0.016;2024-03-02T07:16:13;10.90;;;1.40;;
44774;SDS011;31340;51.402;0.016;2024-03-02T07:18:56;17.80;;;1.90;;
44774;SDS011;31340;51.402;0.016;2024-03-02T07:21:26;8.57;;;1.90;;
44774;SDS011;31340;51.402;0.016;2024-03-02T07:23:54;11.52;;;2.05;;
44774;SDS011;31340;51.402;0.016;2024-03-02T07:26:22;9.40;;;2.13;;
44774;SDS011;31340;51.402;0.016;2024-03-02T07:28:53;9.45;;;1.58;;
44774;SDS011;31340;51.402;0.016;2024-03-02T07:31:20;7.68;;;1.80;;
44774;SDS011;31340;51.402;0.016;2024-03-02T07:33:48;9.63;;;2.30;;
44774;SDS011;31340;51.402;0.016;2024-03-02T07:36:16;17.23;;;2.08;;
44774;SDS011;31340;51.402;0.016;2024-03-02T07:38:44;8.02;;;1.95;;
44774;SDS011;31340;51.402;0.016;2024-03-02T07:41:12;11.75;;;1.85;;
44774;SDS011;31340;51.402;0.016;2024-03-02T07:43:40;14.30;;;2.15;;
44774;SDS011;31340;51.402;0.016;2024-03-02T07:46:07;9.98;;;1.88;;
44774;SDS011;31340;51.402;0.016;2024-03-02T07:48:36;12.63;;;3.17;;
44774;SDS011;31340;51.402;0.016;2024-03-02T07:51:04;14.65;;;2.88;;
44774;SDS011;31340;51.402;0.016;2024-03-02T07:53:32;13.38;;;2.10;;
44774;SDS011;31340;51.402;0.016;2024-03-02T07:55:59;14.07;;;2.30;;
44774;SDS011;31340;51.402;0.016;2024-03-02T07:58:30;10.63;;;2.80;;
44774;SDS011;31340;51.402;0.016;2024-03-02T08:00:58;22.05;;;3.10;;
44774;SDS011;31340;51.402;0.016;2024-03-02T08:03:28;19.95;;;2.95;;
44774;SDS011;31340;51.402;0.016;2024-03-02T08:05:57;13.57;;;2.33;;
44774;SDS011;31340;51.402;0.016;2024-03-02T08:08:25;16.60;;;2.30;;
44774;SDS011;31340;51.402;0.016;2024-03-02T08:10:53;16.58;;;3.00;;
44774;SDS011;31340;51.402;0.016;2024-03-02T08:13:21;11.07;;;2.13;;
44774;SDS011;31340;51.402;0.016;2024-03-02T08:15:48;10.85;;;2.00;;
44774;SDS011;31340;51.402;0.016;2024-03-02T08:18:17;11.70;;;1.90;;
44774;SDS011;31340;51.402;0.016;2024-03-02T08:20:46;8.73;;;2.25;;
44774;SDS011;31340;51.402;0.016;2024-03-02T08:23:13;9.25;;;1.85;;
44774;SDS011;31340;51.402;0.016;2024-03-02T08:25:41;13.23;;;2.00;;
44774;SDS011;31340;51.402;0.016;2024-03-02T08:28:09;11.55;;;2.15;;
44774;SDS011;31340;51.402;0.016;2024-03-02T08:30:37;12.43;;;2.30;;
44774;SDS011;31340;51.402;0.016;2024-03-02T08:33:05;9.13;;;1.73;;
44774;SDS011;31340;51.402;0.016;2024-03-02T08:35:33;11.90;;;2.00;;
44774;SDS011;31340;51.402;0.016;2024-03-02T08:38:04;13.45;;;2.25;;
44774;SDS011;31340;51.402;0.016;2024-03-02T08:40:31;14.73;;;3.33;;
44774;SDS011;31340;51.402;0.016;2024-03-02T08:42:59;13.50;;;1.92;;
44774;SDS011;31340;51.402;0.016;2024-03-02T08:45:27;14.25;;;2.45;;
44774;SDS011;31340;51.402;0.016;2024-03-02T08:47:55;18.65;;;2.40;;
44774;SDS011;31340;51.402;0.016;2024-03-02T08:50:23;20.58;;;3.03;;
44774;SDS011;31340;51.402;0.016;2024-03-02T08:52:52;16.42;;;2.25;;
44774;SDS011;31340;51.402;0.016;2024-03-02T08:55:19;14.40;;;2.13;;
44774;SDS011;31340;51.402;0.016;2024-03-02T08:57:47;7.63;;;1.88;;
44774;SDS011;31340;51.402;0.016;2024-03-02T09:00:17;6.93;;;1.40;;
44774;SDS011;31340;51.402;0.016;2024-03-02T09:02:45;4.57;;;1.35;;
44774;SDS011;31340;51.402;0.016;2024-03-02T09:05:14;9.18;;;2.45;;
44774;SDS011;31340;51.402;0.016;2024-03-02T09:07:42;12.48;;;2.25;;
44774;SDS011;31340;51.402;0.016;2024-03-02T09:10:10;10.18;;;1.63;;
44774;SDS011;31340;51.402;0.016;2024-03-02T09:12:37;10.23;;;2.17;;
44774;SDS011;31340;51.402;0.016;2024-03-02T09:15:06;12.18;;;2.33;;
44774;SDS011;31340;51.402;0.016;2024-03-02T09:17:35;15.60;;;2.53;;
44774;SDS011;31340;51.402;0.016;2024-03-02T09:20:02;17.92;;;2.10;;
44774;SDS011;31340;51.402;0.016;2024-03-02T09:22:31;8.82;;;1.83;;
44774;SDS011;31340;51.402;0.016;2024-03-02T09:24:59;16.83;;;2.75;;
44774;SDS011;31340;51.402;0.016;2024-03-02T09:27:27;10.48;;;1.98;;
44774;SDS011;31340;51.402;0.016;2024-03-02T09:29:54;7.85;;;1.27;;
44774;SDS011;31340;51.402;0.016;2024-03-02T09:32:22;10.50;;;2.08;;
44774;SDS011;31340;51.402;0.016;2024-03-02T09:34:51;10.50;;;1.70;;
44774;SDS011;31340;51.402;0.016;2024-03-02T09:37:20;13.43;;;2.40;;
44774;SDS011;31340;51.402;0.016;2024-03-02T09:39:48;7.63;;;1.98;;
44774;SDS011;31340;51.402;0.016;2024-03-02T09:42:15;15.50;;;2.55;;
44774;SDS011;31340;51.402;0.016;2024-03-02T09:44:43;11.70;;;2.03;;
44774;SDS011;31340;51.402;0.016;2024-03-02T09:47:11;9.52;;;2.15;;
44774;SDS011;31340;51.402;0.016;2024-03-02T09:49:39;10.50;;;2.45;;
44774;SDS011;31340;51.402;0.016;2024-03-02T09:52:07;12.27;;;2.60;;
44774;SDS011;31340;51.402;0.016;2024-03-02T09:54:35;7.55;;;2.55;;
44774;SDS011;31340;51.402;0.016;2024-03-02T09:57:03;16.08;;;1.77;;
44774;SDS011;31340;51.402;0.016;2024-03-02T09:59:32;6.55;;;1.30;;
44774;SDS011;31340;51.402;0.016;2024-03-02T10:02:00;4.03;;;1.20;;
44774;SDS011;31340;51.402;0.016;2024-03-02T10:04:30;4.70;;;1.20;;
44774;SDS011;31340;51.402;0.016;2024-03-02T10:09:49;4.07;;;1.25;;
44774;SDS011;31340;51.402;0.016;2024-03-02T10:12:18;9.20;;;1.40;;
44774;SDS011;31340;51.402;0.016;2024-03-02T10:14:46;6.75;;;1.30;;
44774;SDS011;31340;51.402;0.016;2024-03-02T10:17:16;4.03;;;1.10;;
44774;SDS011;31340;51.402;0.016;2024-03-02T10:19:45;10.43;;;2.08;;
44774;SDS011;31340;51.402;0.016;2024-03-02T10:22:12;14.48;;;1.40;;
44774;SDS011;31340;51.402;0.016;2024-03-02T10:24:41;4.53;;;1.40;;
44774;SDS011;31340;51.402;0.016;2024-03-02T10:27:15;9.68;;;1.50;;
44774;SDS011;31340;51.402;0.016;2024-03-02T10:29:45;10.10;;;1.40;;
44774;SDS011;31340;51.402;0.016;2024-03-02T10:32:15;6.82;;;1.60;;
44774;SDS011;31340;51.402;0.016;2024-03-02T10:34:44;17.00;;;2.72;;
44774;SDS011;31340;51.402;0.016;2024-03-02T10:37:14;12.38;;;1.77;;
44774;SDS011;31340;51.402;0.016;2024-03-02T10:39:42;7.50;;;3.10;;
44774;SDS011;31340;51.402;0.016;2024-03-02T10:42:12;11.23;;;1.83;;
44774;SDS011;31340;51.402;0.016;2024-03-02T10:44:42;9.68;;;1.75;;
44774;SDS011;31340;51.402;0.016;2024-03-02T10:47:10;8.60;;;1.85;;
44774;SDS011;31340;51.402;0.016;2024-03-02T10:49:41;4.68;;;1.30;;
44774;SDS011;31340;51.402;0.016;2024-03-02T10:52:10;9.95;;;1.75;;
44774;SDS011;31340;51.402;0.016;2024-03-02T10:54:38;12.77;;;2.03;;
44774;SDS011;31340;51.402;0.016;2024-03-02T10:57:07;4.30;;;0.73;;
44774;SDS011;31340;51.402;0.016;2024-03-02T10:59:42;1.77;;;0.40;;
44774;SDS011;31340;51.402;0.016;2024-03-02T11:02:19;2.25;;;0.63;;
44774;SDS011;31340;51.402;0.016;2024-03-02T11:04:49;4.68;;;0.55;;
44774;SDS011;31340;51.402;0.016;2024-03-02T11:07:21;3.42;;;0.68;;
44774;SDS011;31340;51.402;0.016;2024-03-02T11:09:56;1.92;;;0.52;;
44774;SDS011;31340;51.402;0.016;2024-03-02T11:12:31;2.72;;;0.80;;
44774;SDS011;31340;51.402;0.016;2024-03-02T11:15:02;1.75;;;0.70;;
44774;SDS011;31340;51.402;0.016;2024-03-02T11:17:37;2.38;;;0.88;;
44774;SDS011;31340;51.402;0.016;2024-03-02T11:22:36;5.85;;;0.90;;
44774;SDS011;31340;51.402;0.016;2024-03-02T11:25:04;4.80;;;0.80;;
44774;SDS011;31340;51.402;0.016;2024-03-02T11:33:03;3.92;;;1.13;;
44774;SDS011;31340;51.402;0.016;2024-03-02T11:35:35;3.20;;;1.10;;
44774;SDS011;31340;51.402;0.016;2024-03-02T11:38:07;3.40;;;1.17;;
44774;SDS011;31340;51.402;0.016;2024-03-02T11:40:36;1.55;;;0.60;;
44774;SDS011;31340;51.402;0.016;2024-03-02T11:43:06;1.67;;;0.63;;
44774;SDS011;31340;51.402;0.016;2024-03-02T11:45:35;4.70;;;2.53;;
44774;SDS011;31340;51.402;0.016;2024-03-02T11:48:08;1.70;;;1.00;;
44774;SDS011;31340;51.402;0.016;2024-03-02T11:53:14;1.98;;;0.55;;
44774;SDS011;31340;51.402;0.016;2024-03-02T11:55:42;2.28;;;0.85;;
44774;SDS011;31340;51.402;0.016;2024-03-02T11:58:14;2.63;;;0.90;;
44774;SDS011;31340;51.402;0.016;2024-03-02T12:00:54;1.58;;;0.80;;
44774;SDS011;31340;51.402;0.016;2024-03-02T12:03:24;1.95;;;0.70;;
44774;SDS011;31340;51.402;0.016;2024-03-02T12:05:53;3.10;;;1.33;;
44774;SDS011;31340;51.402;0.016;2024-03-02T12:08:21;1.52;;;0.75;;
44774;SDS011;31340;51.402;0.016;2024-03-02T12:11:00;3.65;;;1.63;;
44774;SDS011;31340;51.402;0.016;2024-03-02T12:13:30;2.15;;;1.15;;
44774;SDS011;31340;51.402;0.016;2024-03-02T12:15:59;5.65;;;1.85;;
44774;SDS011;31340;51.402;0.016;2024-03-02T12:18:26;5.40;;;1.80;;
44774;SDS011;31340;51.402;0.016;2024-03-02T12:20:55;2.70;;;1.00;;
44774;SDS011;31340;51.402;0.016;2024-03-02T12:23:26;2.67;;;1.20;;
44774;SDS011;31340;51.402;0.016;2024-03-02T12:25:54;2.67;;;0.60;;
44774;SDS011;31340;51.402;0.016;2024-03-02T12:28:22;4.70;;;1.00;;
44774;SDS011;31340;51.402;0.016;2024-03-02T12:30:50;1.25;;;0.70;;
44774;SDS011;31340;51.402;0.016;2024-03-02T12:33:19;2.60;;;0.70;;
44774;SDS011;31340;51.402;0.016;2024-03-02T12:35:48;7.07;;;1.20;;
44774;SDS011;31340;51.402;0.016;2024-03-02T12:38:17;3.55;;;2.03;;
44774;SDS011;31340;51.402;0.016;2024-03-02T12:40:47;4.00;;;1.67;;
44774;SDS011;31340;51.402;0.016;2024-03-02T12:43:15;5.32;;;1.88;;
44774;SDS011;31340;51.402;0.016;2024-03-02T12:45:43;2.85;;;0.82;;
44774;SDS011;31340;51.402;0.016;2024-03-02T12:48:10;3.72;;;1.00;;
44774;SDS011;31340;51.402;0.016;2024-03-02T12:50:40;1.98;;;0.70;;
44774;SDS011;31340;51.402;0.016;2024-03-02T12:53:13;2.53;;;0.82;;
44774;SDS011;31340;51.402;0.016;2024-03-02T12:55:42;3.65;;;1.05;;
44774;SDS011;31340;51.402;0.016;2024-03-02T12:58:18;8.23;;;3.15;;
44774;SDS011;31340;51.402;0.016;2024-03-02T13:00:48;6.22;;;1.90;;
44774;SDS011;31340;51.402;0.016;2024-03-02T13:03:17;2.47;;;0.88;;
44774;SDS011;31340;51.402;0.016;2024-03-02T13:05:49;4.32;;;1.25;;
44774;SDS011;31340;51.402;0.016;2024-03-02T13:08:18;3.33;;;1.00;;
44774;SDS011;31340;51.402;0.016;2024-03-02T13:10:46;2.72;;;0.75;;
44774;SDS011;31340;51.402;0.016;2024-03-02T13:13:14;2.30;;;0.80;;
44774;SDS011;31340;51.402;0.016;2024-03-02T13:15:42;4.57;;;1.38;;
44774;SDS011;31340;51.402;0.016;2024-03-02T13:18:09;7.15;;;1.90;;
44774;SDS011;31340;51.402;0.016;2024-03-02T13:20:48;1.75;;;0.70;;
44774;SDS011;31340;51.402;0.016;2024-03-02T13:23:16;3.17;;;0.80;;
44774;SDS011;31340;51.402;0.016;2024-03-02T13:25:44;4.85;;;0.75;;
44774;SDS011;31340;51.402;0.016;2024-03-02T13:28:14;2.22;;;0.80;;
44774;SDS011;31340;51.402;0.016;2024-03-02T13:30:42;2.28;;;0.60;;
44774;SDS011;31340;51.402;0.016;2024-03-02T13:33:10;2.33;;;0.70;;
44774;SDS011;31340;51.402;0.016;2024-03-02T13:35:37;2.83;;;1.25;;
44774;SDS011;31340;51.402;0.016;2024-03-02T13:38:05;2.72;;;1.08;;
44774;SDS011;31340;51.402;0.016;2024-03-02T13:40:33;3.97;;;1.30;;
44774;SDS011;31340;51.402;0.016;2024-03-02T13:43:02;4.35;;;1.55;;
44774;SDS011;31340;51.402;0.016;2024-03-02T13:45:31;4.13;;;0.90;;
44774;SDS011;31340;51.402;0.016;2024-03-02T13:47:59;2.75;;;0.60;;
44774;SDS011;31340;51.402;0.016;2024-03-02T13:50:27;7.53;;;1.70;;
44774;SDS011;31340;51.402;0.016;2024-03-02T13:52:57;3.28;;;1.05;;
44774;SDS011;31340;51.402;0.016;2024-03-02T13:55:25;8.65;;;2.85;;
44774;SDS011;31340;51.402;0.016;2024-03-02T13:57:52;5.13;;;1.67;;
44774;SDS011;31340;51.402;0.016;2024-03-02T14:00:20;4.45;;;1.38;;
44774;SDS011;31340;51.402;0.016;2024-03-02T14:02:48;5.10;;;1.33;;
44774;SDS011;31340;51.402;0.016;2024-03-02T14:05:17;9.40;;;2.05;;
44774;SDS011;31340;51.402;0.016;2024-03-02T14:07:46;6.53;;;2.00;;
44774;SDS011;31340;51.402;0.016;2024-03-02T14:10:14;7.10;;;1.83;;
44774;SDS011;31340;51.402;0.016;2024-03-02T14:12:43;4.30;;;1.13;;
44774;SDS011;31340;51.402;0.016;2024-03-02T14:15:11;5.18;;;1.60;;
44774;SDS011;31340;51.402;0.016;2024-03-02T14:17:39;3.30;;;0.93;;
44774;SDS011;31340;51.402;0.016;2024-03-02T14:20:07;3.28;;;1.17;;
44774;SDS011;31340;51.402;0.016;2024-03-02T14:22:39;5.70;;;2.70;;
44774;SDS011;31340;51.402;0.016;2024-03-02T14:25:07;3.40;;;1.20;;
44774;SDS011;31340;51.402;0.016;2024-03-02T14:27:35;7.35;;;2.20;;
44774;SDS011;31340;51.402;0.016;2024-03-02T14:30:23;2.78;;;1.00;;
44774;SDS011;31340;51.402;0.016;2024-03-02T14:32:51;4.20;;;1.05;;
44774;SDS011;31340;51.402;0.016;2024-03-02T14:35:19;1.88;;;0.75;;
44774;SDS011;31340;51.402;0.016;2024-03-02T14:37:49;2.45;;;0.90;;
44774;SDS011;31340;51.402;0.016;2024-03-02T14:40:17;2.58;;;0.82;;
44774;SDS011;31340;51.402;0.016;2024-03-02T14:42:44;3.70;;;1.48;;
44774;SDS011;31340;51.402;0.016;2024-03-02T14:45:15;4.70;;;1.65;;
44774;SDS011;31340;51.402;0.016;2024-03-02T14:47:43;8.75;;;2.00;;
44774;SDS011;31340;51.402;0.016;2024-03-02T14:50:11;6.55;;;2.90;;
44774;SDS011;31340;51.402;0.016;2024-03-02T14:52:39;8.50;;;3.08;;
44774;SDS011;31340;51.402;0.016;2024-03-02T14:55:09;6.35;;;1.80;;
44774;SDS011;31340;51.402;0.016;2024-03-02T14:57:37;2.67;;;0.98;;
44774;SDS011;31340;51.402;0.016;2024-03-02T15:00:05;3.40;;;0.90;;
44774;SDS011;31340;51.402;0.016;2024-03-02T15:02:34;3.58;;;1.33;;
44774;SDS011;31340;51.402;0.016;2024-03-02T15:05:02;2.80;;;0.98;;
44774;SDS011;31340;51.402;0.016;2024-03-02T15:07:30;1.73;;;0.98;;
44774;SDS011;31340;51.402;0.016;2024-03-02T15:09:58;11.38;;;5.70;;